Time,TemperatureF,DewpointF,PressureIn,WindDirection,WindDirectionDegrees,WindSpeedMPH,WindSpeedGustMPH,Humidity,HourlyPrecipIn,Conditions,Clouds,dailyrainin,SoftwareType,DateUTC
2013-04-21 00:02:00,49.8,26.5,30.30,NE,40,3.2,5.0,40,0.00,NA,NA,0.00,WeatherLink_script,2013-04-21 04:02:00,
2013-04-21 00:04:00,49.8,25.9,30.30,NNE,21,3.0,4.0,39,0.00,NA,NA,0.00,WeatherLink_script,2013-04-21 04:04:00,
2013-04-21 00:05:00,49.8,25.9,30.30,NNE,22,2.5,5.0,39,0.00,NA,NA,0.00,WeatherLink_script,2013-04-21 04:05:00,
2013-04-21 00:06:00,49.8,25.9,30.30,NNE,21,3.3,4.0,39,0.00,NA,NA,0.00,WeatherLink_script,2013-04-21 04:06:00,
2013-04-21 00:10:00,49.6,26.3,30.30,NNE,12,2.8,5.0,40,0.00,NA,NA,0.00,WeatherLink_script,2013-04-21 04:10:00,
2013-04-21 00:16:00,49.5,26.2,30.30,North,4,1.5,3.0,40,0.00,NA,NA,0.00,WeatherLink_script,2013-04-21 04:16:00,
2013-04-21 00:21:00,49.3,26.6,30.31,North,5,0.6,1.0,41,0.00,NA,NA,0.00,WeatherLink_script,2013-04-21 04:21:00,
2013-04-21 00:26:00,48.8,26.8,30.31,North,4,1.5,2.0,42,0.00,NA,NA,0.00,WeatherLink_script,2013-04-21 04:26:00,
2013-04-21 00:31:00,48.5,27.0,30.31,North,5,1.2,3.0,43,0.00,NA,NA,0.00,WeatherLink_script,2013-04-21 04:31:00,
2013-04-21 00:36:00,48.2,27.9,30.32,NNE,33,2.5,5.0,45,0.00,NA,NA,0.00,WeatherLink_script,2013-04-21 04:36:00,
2013-04-21 00:41:00,47.8,28.6,30.32,NE,40,2.6,5.0,47,0.00,NA,NA,0.00,WeatherLink_script,2013-04-21 04:41:00,
2013-04-21 00:46:00,47.4,28.7,30.32,NNE,30,1.7,3.0,48,0.00,NA,NA,0.00,WeatherLink_script,2013-04-21 04:46:00,
2013-04-21 00:51:00,47.1,28.4,30.32,NE,47,4.3,8.0,48,0.00,NA,NA,0.00,WeatherLink_script,2013-04-21 04:51:00,
2013-04-21 00:56:00,46.8,28.7,30.32,NNE,22,1.9,3.0,49,0.00,NA,NA,0.00,WeatherLink_script,2013-04-21 04:56:00,
2013-04-21 01:01:00,46.5,28.9,30.32,North,355,3.3,4.0,50,0.00,NA,NA,0.00,WeatherLink_script,2013-04-21 05:01:00,
2013-04-21 01:06:00,46.2,28.6,30.33,North,352,2.4,3.0,50,0.00,NA,NA,0.00,WeatherLink_script,2013-04-21 05:06:00,
2013-04-21 01:11:00,46.0,28.9,30.33,NNE,16,2.2,4.0,51,0.00,NA,NA,0.00,WeatherLink_script,2013-04-21 05:11:00,
2013-04-21 01:16:00,45.7,28.6,30.33,NNE,25,3.2,6.0,51,0.00,NA,NA,0.00,WeatherLink_script,2013-04-21 05:16:00,
2013-04-21 01:21:00,45.4,28.8,30.33,NE,34,3.2,5.0,52,0.00,NA,NA,0.00,WeatherLink_script,2013-04-21 05:21:00,
2013-04-21 01:26:00,45.1,29.0,30.33,NNE,32,2.9,7.0,53,0.00,NA,NA,0.00,WeatherLink_script,2013-04-21 05:26:00,
2013-04-21 01:31:00,44.7,28.7,30.33,NNE,29,3.8,11.0,53,0.00,NA,NA,0.00,WeatherLink_script,2013-04-21 05:31:00,
2013-04-21 01:36:00,44.6,28.5,30.33,NNE,30,4.0,7.0,53,0.00,NA,NA,0.00,WeatherLink_script,2013-04-21 05:36:00,
2013-04-21 01:41:00,44.4,28.8,30.33,North,11,3.2,5.0,54,0.00,NA,NA,0.00,WeatherLink_script,2013-04-21 05:41:00,
2013-04-21 01:46:00,44.3,28.7,30.34,NE,56,3.1,5.0,54,0.00,NA,NA,0.00,WeatherLink_script,2013-04-21 05:46:00,
2013-04-21 01:51:00,44.0,28.5,30.34,NE,38,2.8,5.0,54,0.00,NA,NA,0.00,WeatherLink_script,2013-04-21 05:51:00,
2013-04-21 01:56:00,43.9,28.3,30.34,North,8,3.5,6.0,54,0.00,NA,NA,0.00,WeatherLink_script,2013-04-21 05:56:00,
2013-04-21 02:01:00,43.7,28.2,30.34,NNE,17,1.9,4.0,54,0.00,NA,NA,0.00,WeatherLink_script,2013-04-21 06:01:00,
2013-04-21 02:06:00,43.6,28.5,30.34,NNE,30,3.0,4.0,55,0.00,NA,NA,0.00,WeatherLink_script,2013-04-21 06:06:00,
2013-04-21 02:11:00,43.4,28.3,30.34,NNE,12,2.2,4.0,55,0.00,NA,NA,0.00,WeatherLink_script,2013-04-21 06:11:00,
2013-04-21 02:16:00,43.3,28.2,30.34,NNE,24,2.0,4.0,55,0.00,NA,NA,0.00,WeatherLink_script,2013-04-21 06:16:00,
2013-04-21 02:21:00,43.0,28.4,30.34,NNE,24,1.1,3.0,56,0.00,NA,NA,0.00,WeatherLink_script,2013-04-21 06:21:00,
2013-04-21 02:26:00,42.9,28.7,30.35,NNE,24,1.7,3.0,57,0.00,NA,NA,0.00,WeatherLink_script,2013-04-21 06:26:00,
2013-04-21 02:31:00,42.6,28.4,30.34,North,358,1.8,4.0,57,0.00,NA,NA,0.00,WeatherLink_script,2013-04-21 06:31:00,
2013-04-21 02:36:00,42.5,28.3,30.35,North,7,1.3,3.0,57,0.00,NA,NA,0.00,WeatherLink_script,2013-04-21 06:36:00,
2013-04-21 02:41:00,42.3,28.2,30.35,North,3,2.9,4.0,57,0.00,NA,NA,0.00,WeatherLink_script,2013-04-21 06:41:00,
2013-04-21 02:46:00,42.3,28.2,30.35,NE,47,2.3,5.0,57,0.00,NA,NA,0.00,WeatherLink_script,2013-04-21 06:46:00,
2013-04-21 02:51:00,42.2,28.5,30.35,NNE,24,1.7,3.0,58,0.00,NA,NA,0.00,WeatherLink_script,2013-04-21 06:51:00,
2013-04-21 02:56:00,42.0,28.3,30.35,NNE,23,2.1,4.0,58,0.00,NA,NA,0.00,WeatherLink_script,2013-04-21 06:56:00,
2013-04-21 03:01:00,41.9,28.2,30.36,NNE,33,2.2,4.0,58,0.00,NA,NA,0.00,WeatherLink_script,2013-04-21 07:01:00,
2013-04-21 03:06:00,41.7,28.1,30.36,ENE,58,1.0,2.0,58,0.00,NA,NA,0.00,WeatherLink_script,2013-04-21 07:06:00,
2013-04-21 03:11:00,41.7,28.4,30.36,ENE,65,3.4,6.0,59,0.00,NA,NA,0.00,WeatherLink_script,2013-04-21 07:11:00,
2013-04-21 03:16:00,41.6,28.3,30.36,East,86,0.5,3.0,59,0.00,NA,NA,0.00,WeatherLink_script,2013-04-21 07:16:00,
2013-04-21 03:21:00,41.5,28.3,30.37,NE,41,2.7,5.0,59,0.00,NA,NA,0.00,WeatherLink_script,2013-04-21 07:21:00,
2013-04-21 03:26:00,41.4,28.2,30.37,NNE,27,3.3,5.0,59,0.00,NA,NA,0.00,WeatherLink_script,2013-04-21 07:26:00,
2013-04-21 03:31:00,41.3,28.1,30.37,ENE,66,3.4,5.0,59,0.00,NA,NA,0.00,WeatherLink_script,2013-04-21 07:31:00,
2013-04-21 03:36:00,41.3,28.5,30.37,East,98,2.9,6.0,60,0.00,NA,NA,0.00,WeatherLink_script,2013-04-21 07:36:00,
2013-04-21 03:41:00,41.2,28.3,30.37,ENE,58,2.4,5.0,60,0.00,NA,NA,0.00,WeatherLink_script,2013-04-21 07:41:00,
2013-04-21 03:46:00,41.0,28.2,30.37,NE,37,1.8,3.0,60,0.00,NA,NA,0.00,WeatherLink_script,2013-04-21 07:46:00,
2013-04-21 03:51:00,41.0,28.2,30.38,NE,49,2.7,6.0,60,0.00,NA,NA,0.00,WeatherLink_script,2013-04-21 07:51:00,
2013-04-21 03:56:00,40.9,28.1,30.38,NE,40,1.4,3.0,60,0.00,NA,NA,0.00,WeatherLink_script,2013-04-21 07:56:00,
2013-04-21 04:01:00,40.7,27.9,30.38,NE,46,3.8,8.0,60,0.00,NA,NA,0.00,WeatherLink_script,2013-04-21 08:01:00,
2013-04-21 04:06:00,40.6,28.2,30.39,NE,39,2.5,5.0,61,0.00,NA,NA,0.00,WeatherLink_script,2013-04-21 08:06:00,
2013-04-21 04:12:00,40.4,28.0,30.39,NNE,23,1.6,4.0,61,0.00,NA,NA,0.00,WeatherLink_script,2013-04-21 08:12:00,
2013-04-21 04:17:00,40.3,28.3,30.39,NNE,22,2.0,4.0,62,0.00,NA,NA,0.00,WeatherLink_script,2013-04-21 08:17:00,
2013-04-21 04:22:00,40.2,28.2,30.39,NE,45,2.3,4.0,62,0.00,NA,NA,0.00,WeatherLink_script,2013-04-21 08:22:00,
2013-04-21 04:27:00,40.2,28.2,30.40,ENE,77,1.6,3.0,62,0.00,NA,NA,0.00,WeatherLink_script,2013-04-21 08:27:00,
2013-04-21 04:32:00,40.0,28.0,30.40,NE,48,2.3,5.0,62,0.00,NA,NA,0.00,WeatherLink_script,2013-04-21 08:32:00,
2013-04-21 04:37:00,39.9,28.0,30.40,NE,41,1.4,4.0,62,0.00,NA,NA,0.00,WeatherLink_script,2013-04-21 08:37:00,
2013-04-21 04:42:00,39.7,28.2,30.40,NE,40,2.0,4.0,63,0.00,NA,NA,0.00,WeatherLink_script,2013-04-21 08:42:00,
2013-04-21 04:47:00,39.7,28.2,30.40,East,97,1.1,2.0,63,0.00,NA,NA,0.00,WeatherLink_script,2013-04-21 08:47:00,
2013-04-21 04:52:00,39.6,28.1,30.41,East,96,1.9,3.0,63,0.00,NA,NA,0.00,WeatherLink_script,2013-04-21 08:52:00,
2013-04-21 04:57:00,39.5,27.9,30.41,ENE,63,0.4,1.0,63,0.00,NA,NA,0.00,WeatherLink_script,2013-04-21 08:57:00,
2013-04-21 05:02:00,39.4,27.9,30.41,ENE,61,1.8,3.0,63,0.00,NA,NA,0.00,WeatherLink_script,2013-04-21 09:02:00,
2013-04-21 05:07:00,39.3,27.8,30.41,NE,35,3.2,6.0,63,0.00,NA,NA,0.00,WeatherLink_script,2013-04-21 09:07:00,
2013-04-21 05:12:00,39.2,27.6,30.42,NNE,31,1.7,3.0,63,0.00,NA,NA,0.00,WeatherLink_script,2013-04-21 09:12:00,
2013-04-21 05:17:00,39.1,28.0,30.42,NNE,29,4.3,8.0,64,0.00,NA,NA,0.00,WeatherLink_script,2013-04-21 09:17:00,
2013-04-21 05:22:00,39.0,27.5,30.42,NE,34,2.9,4.0,63,0.00,NA,NA,0.00,WeatherLink_script,2013-04-21 09:22:00,
2013-04-21 05:27:00,39.0,27.5,30.42,NNE,17,0.8,2.0,63,0.00,NA,NA,0.00,WeatherLink_script,2013-04-21 09:27:00,
2013-04-21 05:32:00,38.9,27.8,30.42,North,11,2.3,6.0,64,0.00,NA,NA,0.00,WeatherLink_script,2013-04-21 09:32:00,
2013-04-21 05:37:00,38.9,27.8,30.43,ENE,57,1.0,3.0,64,0.00,NA,NA,0.00,WeatherLink_script,2013-04-21 09:37:00,
2013-04-21 05:42:00,38.7,27.6,30.43,North,10,2.0,5.0,64,0.00,NA,NA,0.00,WeatherLink_script,2013-04-21 09:42:00,
2013-04-21 05:47:00,38.7,27.6,30.43,NE,35,1.8,4.0,64,0.00,NA,NA,0.00,WeatherLink_script,2013-04-21 09:47:00,
2013-04-21 05:52:00,38.6,27.5,30.43,NE,38,2.4,6.0,64,0.00,NA,NA,0.00,WeatherLink_script,2013-04-21 09:52:00,
2013-04-21 05:57:00,38.6,27.9,30.44,NNE,29,2.5,4.0,65,0.00,NA,NA,0.00,WeatherLink_script,2013-04-21 09:57:00,
2013-04-21 06:02:00,38.4,27.7,30.44,NE,53,1.7,3.0,65,0.00,NA,NA,0.00,WeatherLink_script,2013-04-21 10:02:00,
2013-04-21 06:07:00,38.3,27.6,30.44,NE,54,2.1,4.0,65,0.00,NA,NA,0.00,WeatherLink_script,2013-04-21 10:07:00,
2013-04-21 06:12:00,38.3,27.6,30.45,NNE,20,1.6,3.0,65,0.00,NA,NA,0.00,WeatherLink_script,2013-04-21 10:12:00,
2013-04-21 06:17:00,38.2,27.5,30.45,North,11,1.6,3.0,65,0.00,NA,NA,0.00,WeatherLink_script,2013-04-21 10:17:00,
2013-04-21 06:22:00,38.2,27.5,30.45,NNE,24,1.9,3.0,65,0.00,NA,NA,0.00,WeatherLink_script,2013-04-21 10:22:00,
2013-04-21 06:27:00,38.2,27.5,30.45,NE,56,4.2,9.0,65,0.00,NA,NA,0.00,WeatherLink_script,2013-04-21 10:27:00,
2013-04-21 06:32:00,38.2,27.5,30.46,NE,42,2.1,5.0,65,0.00,NA,NA,0.00,WeatherLink_script,2013-04-21 10:32:00,
2013-04-21 06:37:00,38.0,27.3,30.46,NNE,31,2.1,4.0,65,0.00,NA,NA,0.00,WeatherLink_script,2013-04-21 10:37:00,
2013-04-21 06:43:00,38.0,27.3,30.46,NE,34,3.1,6.0,65,0.00,NA,NA,0.00,WeatherLink_script,2013-04-21 10:43:00,
2013-04-21 06:48:00,38.0,27.7,30.47,NNE,20,3.6,5.0,66,0.00,NA,NA,0.00,WeatherLink_script,2013-04-21 10:48:00,
2013-04-21 06:53:00,37.9,27.6,30.48,NNE,21,1.5,2.0,66,0.00,NA,NA,0.00,WeatherLink_script,2013-04-21 10:53:00,
2013-04-21 06:58:00,38.0,27.3,30.48,ENE,59,2.7,5.0,65,0.00,NA,NA,0.00,WeatherLink_script,2013-04-21 10:58:00,
2013-04-21 07:03:00,38.2,27.5,30.48,NNE,15,2.5,4.0,65,0.00,NA,NA,0.00,WeatherLink_script,2013-04-21 11:03:00,
2013-04-21 07:08:00,38.1,27.8,30.48,ENE,60,2.8,5.0,66,0.00,NA,NA,0.00,WeatherLink_script,2013-04-21 11:08:00,
2013-04-21 07:13:00,38.4,27.6,30.49,NE,37,3.8,5.0,65,0.00,NA,NA,0.00,WeatherLink_script,2013-04-21 11:13:00,
2013-04-21 07:18:00,38.5,27.4,30.49,NE,37,3.6,8.0,64,0.00,NA,NA,0.00,WeatherLink_script,2013-04-21 11:18:00,
2013-04-21 07:23:00,38.6,27.5,30.49,ENE,67,4.1,7.0,64,0.00,NA,NA,0.00,WeatherLink_script,2013-04-21 11:23:00,
2013-04-21 07:28:00,38.6,27.1,30.50,NE,56,5.5,8.0,63,0.00,NA,NA,0.00,WeatherLink_script,2013-04-21 11:28:00,
2013-04-21 07:33:00,38.7,27.2,30.50,ENE,60,6.3,11.0,63,0.00,NA,NA,0.00,WeatherLink_script,2013-04-21 11:33:00,
2013-04-21 07:38:00,38.7,26.8,30.49,NNE,15,4.1,7.0,62,0.00,NA,NA,0.00,WeatherLink_script,2013-04-21 11:38:00,
2013-04-21 07:43:00,38.7,27.2,30.49,ENE,70,2.0,4.0,63,0.00,NA,NA,0.00,WeatherLink_script,2013-04-21 11:43:00,
2013-04-21 07:48:00,38.7,27.2,30.50,NE,53,4.0,7.0,63,0.00,NA,NA,0.00,WeatherLink_script,2013-04-21 11:48:00,
2013-04-21 07:53:00,38.9,27.0,30.50,NE,39,6.1,12.0,62,0.00,NA,NA,0.00,WeatherLink_script,2013-04-21 11:53:00,
2013-04-21 07:58:00,38.9,27.0,30.50,NE,34,1.9,3.0,62,0.00,NA,NA,0.00,WeatherLink_script,2013-04-21 11:58:00,
2013-04-21 08:03:00,38.9,26.6,30.51,NE,47,5.1,8.0,61,0.00,NA,NA,0.00,WeatherLink_script,2013-04-21 12:03:00,
2013-04-21 08:08:00,39.1,27.2,30.51,ENE,78,2.9,5.0,62,0.00,NA,NA,0.00,WeatherLink_script,2013-04-21 12:08:00,
2013-04-21 08:13:00,39.3,27.0,30.51,NE,50,5.1,8.0,61,0.00,NA,NA,0.00,WeatherLink_script,2013-04-21 12:13:00,
2013-04-21 08:18:00,39.4,26.7,30.51,NE,35,5.4,10.0,60,0.00,NA,NA,0.00,WeatherLink_script,2013-04-21 12:18:00,
2013-04-21 08:23:00,39.6,26.9,30.51,North,0,2.8,5.0,60,0.00,NA,NA,0.00,WeatherLink_script,2013-04-21 12:23:00,
2013-04-21 08:28:00,39.7,26.6,30.51,East,95,3.7,7.0,59,0.00,NA,NA,0.00,WeatherLink_script,2013-04-21 12:28:00,
2013-04-21 08:33:00,39.9,26.4,30.52,NE,40,4.5,7.0,58,0.00,NA,NA,0.00,WeatherLink_script,2013-04-21 12:33:00,
2013-04-21 08:38:00,40.1,26.5,30.52,NE,34,5.3,7.0,58,0.00,NA,NA,0.00,WeatherLink_script,2013-04-21 12:38:00,
2013-04-21 08:43:00,40.3,26.7,30.52,NNE,18,4.4,6.0,58,0.00,NA,NA,0.00,WeatherLink_script,2013-04-21 12:43:00,
2013-04-21 08:48:00,40.4,26.8,30.52,NE,37,4.3,6.0,58,0.00,NA,NA,0.00,WeatherLink_script,2013-04-21 12:48:00,
2013-04-21 08:53:00,40.6,26.6,30.52,NNE,28,3.2,8.0,57,0.00,NA,NA,0.00,WeatherLink_script,2013-04-21 12:53:00,
2013-04-21 08:58:00,40.7,26.2,30.52,NNE,32,3.9,5.0,56,0.00,NA,NA,0.00,WeatherLink_script,2013-04-21 12:58:00,
2013-04-21 09:03:00,41.0,26.9,30.52,NE,43,4.6,8.0,57,0.00,NA,NA,0.00,WeatherLink_script,2013-04-21 13:03:00,
2013-04-21 09:08:00,41.2,26.7,30.52,NNE,22,5.1,10.0,56,0.00,NA,NA,0.00,WeatherLink_script,2013-04-21 13:08:00,
2013-04-21 09:13:00,41.5,26.1,30.53,NNE,12,3.9,8.0,54,0.00,NA,NA,0.00,WeatherLink_script,2013-04-21 13:13:00,
2013-04-21 09:18:00,41.9,26.5,30.53,NE,34,2.3,6.0,54,0.00,NA,NA,0.00,WeatherLink_script,2013-04-21 13:18:00,
2013-04-21 09:23:00,42.3,27.3,30.53,NNE,25,2.8,5.0,55,0.00,NA,NA,0.00,WeatherLink_script,2013-04-21 13:23:00,
2013-04-21 09:28:00,42.9,27.4,30.53,NNW,329,4.1,5.0,54,0.00,NA,NA,0.00,WeatherLink_script,2013-04-21 13:28:00,
2013-04-21 09:33:00,43.2,26.8,30.53,NE,37,5.6,10.0,52,0.00,NA,NA,0.00,WeatherLink_script,2013-04-21 13:33:00,
2013-04-21 09:38:00,43.3,26.4,30.54,NNE,16,5.2,8.0,51,0.00,NA,NA,0.00,WeatherLink_script,2013-04-21 13:38:00,
2013-04-21 09:43:00,43.7,27.2,30.54,NE,34,2.8,5.0,52,0.00,NA,NA,0.00,WeatherLink_script,2013-04-21 13:43:00,
2013-04-21 09:48:00,44.1,27.2,30.54,NE,37,3.8,6.0,51,0.00,NA,NA,0.00,WeatherLink_script,2013-04-21 13:48:00,
2013-04-21 09:53:00,44.7,27.7,30.54,NE,46,3.4,6.0,51,0.00,NA,NA,0.00,WeatherLink_script,2013-04-21 13:53:00,
2013-04-21 09:58:00,45.1,28.1,30.54,NE,42,3.9,9.0,51,0.00,NA,NA,0.00,WeatherLink_script,2013-04-21 13:58:00,
2013-04-21 10:03:00,45.7,27.6,30.54,NNE,15,3.9,7.0,49,0.00,NA,NA,0.00,WeatherLink_script,2013-04-21 14:03:00,
2013-04-21 10:08:00,46.1,28.5,30.54,NNE,19,1.6,3.0,50,0.00,NA,NA,0.00,WeatherLink_script,2013-04-21 14:08:00,
2013-04-21 10:13:00,46.5,27.8,30.54,NE,55,4.3,8.0,48,0.00,NA,NA,0.00,WeatherLink_script,2013-04-21 14:13:00,
2013-04-21 10:18:00,46.7,28.6,30.54,NNE,25,4.3,6.0,49,0.00,NA,NA,0.00,WeatherLink_script,2013-04-21 14:18:00,
2013-04-21 10:23:00,46.5,26.8,30.54,NE,35,1.1,4.0,46,0.00,NA,NA,0.00,WeatherLink_script,2013-04-21 14:23:00,
2013-04-21 10:28:00,46.7,27.6,30.54,ESE,114,2.6,4.0,47,0.00,NA,NA,0.00,WeatherLink_script,2013-04-21 14:28:00,
2013-04-21 10:33:00,47.0,26.8,30.54,ENE,76,5.4,7.0,45,0.00,NA,NA,0.00,WeatherLink_script,2013-04-21 14:33:00,
2013-04-21 10:38:00,47.2,27.5,30.53,ESE,117,3.5,6.0,46,0.00,NA,NA,0.00,WeatherLink_script,2013-04-21 14:38:00,
2013-04-21 10:43:00,47.4,27.7,30.54,NNE,27,4.3,8.0,46,0.00,NA,NA,0.00,WeatherLink_script,2013-04-21 14:43:00,
2013-04-21 10:49:00,47.5,27.2,30.54,NE,37,3.2,5.0,45,0.00,NA,NA,0.00,WeatherLink_script,2013-04-21 14:49:00,
2013-04-21 10:54:00,48.2,28.9,30.54,ENE,78,2.5,4.0,47,0.00,NA,NA,0.00,WeatherLink_script,2013-04-21 14:54:00,
2013-04-21 10:59:00,48.5,27.6,30.54,ESE,113,4.0,8.0,44,0.00,NA,NA,0.00,WeatherLink_script,2013-04-21 14:59:00,
2013-04-21 11:04:00,48.3,28.5,30.54,ENE,73,3.5,5.0,46,0.00,NA,NA,0.00,WeatherLink_script,2013-04-21 15:04:00,
2013-04-21 11:09:00,48.5,27.6,30.54,ENE,66,3.8,6.0,44,0.00,NA,NA,0.00,WeatherLink_script,2013-04-21 15:09:00,
2013-04-21 11:14:00,48.8,28.4,30.54,ENE,61,1.2,3.0,45,0.00,NA,NA,0.00,WeatherLink_script,2013-04-21 15:14:00,
2013-04-21 11:19:00,49.2,28.2,30.55,East,83,3.6,6.0,44,0.00,NA,NA,0.00,WeatherLink_script,2013-04-21 15:19:00,
2013-04-21 11:24:00,49.4,28.4,30.54,SSE,148,1.7,3.0,44,0.00,NA,NA,0.00,WeatherLink_script,2013-04-21 15:24:00,
2013-04-21 11:29:00,49.5,28.5,30.54,NE,56,7.3,11.0,44,0.00,NA,NA,0.00,WeatherLink_script,2013-04-21 15:29:00,
2013-04-21 11:34:00,49.3,27.8,30.54,NE,47,4.1,6.0,43,0.00,NA,NA,0.00,WeatherLink_script,2013-04-21 15:34:00,
2013-04-21 11:39:00,49.5,27.9,30.54,NE,43,1.3,3.0,43,0.00,NA,NA,0.00,WeatherLink_script,2013-04-21 15:39:00,
2013-04-21 11:44:00,49.9,28.3,30.54,NE,47,2.6,4.0,43,0.00,NA,NA,0.00,WeatherLink_script,2013-04-21 15:44:00,
2013-04-21 11:50:00,50.3,28.1,30.54,ENE,63,5.5,7.0,42,0.00,NA,NA,0.00,WeatherLink_script,2013-04-21 15:50:00,
2013-04-21 11:55:00,50.1,29.6,30.54,West,271,1.6,3.0,45,0.00,NA,NA,0.00,WeatherLink_script,2013-04-21 15:55:00,
2013-04-21 12:00:00,50.4,29.9,30.54,ENE,69,1.2,3.0,45,0.00,NA,NA,0.00,WeatherLink_script,2013-04-21 16:00:00,
2013-04-21 12:05:00,50.8,30.8,30.53,NNE,24,3.1,4.0,46,0.00,NA,NA,0.00,WeatherLink_script,2013-04-21 16:05:00,
2013-04-21 12:10:00,50.8,28.6,30.53,North,2,3.0,5.0,42,0.00,NA,NA,0.00,WeatherLink_script,2013-04-21 16:10:00,
2013-04-21 12:16:00,50.7,29.0,30.53,ENE,59,2.0,3.0,43,0.00,NA,NA,0.00,WeatherLink_script,2013-04-21 16:16:00,
2013-04-21 12:21:00,50.8,30.8,30.53,NNE,32,4.2,6.0,46,0.00,NA,NA,0.00,WeatherLink_script,2013-04-21 16:21:00,
2013-04-21 12:26:00,51.3,31.8,30.53,NE,34,2.9,4.0,47,0.00,NA,NA,0.00,WeatherLink_script,2013-04-21 16:26:00,
2013-04-21 12:31:00,51.8,28.8,30.53,NNE,33,4.0,7.0,41,0.00,NA,NA,0.00,WeatherLink_script,2013-04-21 16:31:00,
2013-04-21 12:36:00,51.7,29.4,30.53,NE,52,4.6,7.0,42,0.00,NA,NA,0.00,WeatherLink_script,2013-04-21 16:36:00,
2013-04-21 12:41:00,51.2,30.1,30.53,NE,42,3.7,6.0,44,0.00,NA,NA,0.00,WeatherLink_script,2013-04-21 16:41:00,
2013-04-21 12:46:00,51.5,30.3,30.52,NE,34,2.9,5.0,44,0.00,NA,NA,0.00,WeatherLink_script,2013-04-21 16:46:00,
2013-04-21 12:51:00,51.7,29.9,30.52,NE,47,4.2,8.0,43,0.00,NA,NA,0.00,WeatherLink_script,2013-04-21 16:51:00,
2013-04-21 12:56:00,52.0,29.0,30.52,NNE,18,1.6,3.0,41,0.00,NA,NA,0.00,WeatherLink_script,2013-04-21 16:56:00,
2013-04-21 13:01:00,52.0,29.0,30.52,NE,40,4.4,5.0,41,0.00,NA,NA,0.00,WeatherLink_script,2013-04-21 17:01:00,
2013-04-21 13:06:00,51.7,29.4,30.52,East,93,2.7,4.0,42,0.00,NA,NA,0.00,WeatherLink_script,2013-04-21 17:06:00,
2013-04-21 13:11:00,52.0,30.8,30.52,East,100,2.1,4.0,44,0.00,NA,NA,0.00,WeatherLink_script,2013-04-21 17:11:00,
2013-04-21 13:16:00,52.7,32.0,30.52,East,87,2.5,3.0,45,0.00,NA,NA,0.00,WeatherLink_script,2013-04-21 17:16:00,
2013-04-21 13:21:00,53.6,30.5,30.51,ENE,58,0.9,3.0,41,0.00,NA,NA,0.00,WeatherLink_script,2013-04-21 17:21:00,
2013-04-21 13:26:00,53.6,30.5,30.51,NNE,22,3.0,6.0,41,0.00,NA,NA,0.00,WeatherLink_script,2013-04-21 17:26:00,
2013-04-21 13:31:00,53.4,30.3,30.52,ENE,60,6.1,8.0,41,0.00,NA,NA,0.00,WeatherLink_script,2013-04-21 17:31:00,
2013-04-21 13:36:00,53.2,31.3,30.52,SE,131,2.3,4.0,43,0.00,NA,NA,0.00,WeatherLink_script,2013-04-21 17:36:00,
2013-04-21 13:41:00,53.3,31.9,30.51,South,182,4.6,7.0,44,0.00,NA,NA,0.00,WeatherLink_script,2013-04-21 17:41:00,
2013-04-21 13:46:00,53.5,31.0,30.51,SSE,148,0.6,1.0,42,0.00,NA,NA,0.00,WeatherLink_script,2013-04-21 17:46:00,
2013-04-21 13:51:00,53.9,30.7,30.51,ENE,71,4.7,7.0,41,0.00,NA,NA,0.00,WeatherLink_script,2013-04-21 17:51:00,
2013-04-21 13:56:00,54.0,32.6,30.51,NE,41,0.2,1.0,44,0.00,NA,NA,0.00,WeatherLink_script,2013-04-21 17:56:00,
2013-04-21 14:01:00,54.3,31.1,30.51,NE,43,0.8,3.0,41,0.00,NA,NA,0.00,WeatherLink_script,2013-04-21 18:01:00,
2013-04-21 14:06:00,54.4,30.6,30.51,NNE,27,0.3,2.0,40,0.00,NA,NA,0.00,WeatherLink_script,2013-04-21 18:06:00,
2013-04-21 14:11:00,54.6,32.0,30.51,East,90,2.9,5.0,42,0.00,NA,NA,0.00,WeatherLink_script,2013-04-21 18:11:00,
2013-04-21 14:16:00,54.2,30.4,30.50,NE,35,3.5,6.0,40,0.00,NA,NA,0.00,WeatherLink_script,2013-04-21 18:16:00,
2013-04-21 14:21:00,54.0,31.4,30.50,ENE,62,1.4,3.0,42,0.00,NA,NA,0.00,WeatherLink_script,2013-04-21 18:21:00,
2013-04-21 14:26:00,54.0,30.2,30.50,East,94,1.5,4.0,40,0.00,NA,NA,0.00,WeatherLink_script,2013-04-21 18:26:00,
2013-04-21 14:31:00,53.6,31.1,30.50,ENE,59,3.3,5.0,42,0.00,NA,NA,0.00,WeatherLink_script,2013-04-21 18:31:00,
2013-04-21 14:36:00,53.7,30.5,30.49,East,85,4.7,7.0,41,0.00,NA,NA,0.00,WeatherLink_script,2013-04-21 18:36:00,
2013-04-21 14:41:00,53.6,30.5,30.49,ESE,103,2.2,4.0,41,0.00,NA,NA,0.00,WeatherLink_script,2013-04-21 18:41:00,
2013-04-21 14:46:00,53.7,30.6,30.49,NE,54,3.7,6.0,41,0.00,NA,NA,0.00,WeatherLink_script,2013-04-21 18:46:00,
2013-04-21 14:51:00,53.6,31.1,30.49,SSE,148,2.5,4.0,42,0.00,NA,NA,0.00,WeatherLink_script,2013-04-21 18:51:00,
2013-04-21 14:56:00,53.7,30.6,30.49,SSW,199,0.6,2.0,41,0.00,NA,NA,0.00,WeatherLink_script,2013-04-21 18:56:00,
2013-04-21 15:01:00,54.2,31.6,30.48,ENE,71,3.7,6.0,42,0.00,NA,NA,0.00,WeatherLink_script,2013-04-21 19:01:00,
2013-04-21 15:06:00,54.2,32.8,30.48,SE,124,1.5,3.0,44,0.00,NA,NA,0.00,WeatherLink_script,2013-04-21 19:06:00,
2013-04-21 15:11:00,54.2,30.4,30.48,East,95,0.5,1.0,40,0.00,NA,NA,0.00,WeatherLink_script,2013-04-21 19:11:00,
2013-04-21 15:16:00,54.2,31.6,30.48,ESE,106,2.6,4.0,42,0.00,NA,NA,0.00,WeatherLink_script,2013-04-21 19:16:00,
2013-04-21 15:21:00,54.2,31.0,30.48,ENE,68,3.0,5.0,41,0.00,NA,NA,0.00,WeatherLink_script,2013-04-21 19:21:00,
2013-04-21 15:26:00,54.0,32.0,30.48,East,100,2.0,3.0,43,0.00,NA,NA,0.00,WeatherLink_script,2013-04-21 19:26:00,
2013-04-21 15:31:00,54.2,32.8,30.48,ENE,69,0.3,1.0,44,0.00,NA,NA,0.00,WeatherLink_script,2013-04-21 19:31:00,
2013-04-21 15:36:00,54.3,32.3,30.48,East,87,2.6,5.0,43,0.00,NA,NA,0.00,WeatherLink_script,2013-04-21 19:36:00,
2013-04-21 15:41:00,54.6,33.1,30.48,ESE,102,0.8,2.0,44,0.00,NA,NA,0.00,WeatherLink_script,2013-04-21 19:41:00,
2013-04-21 15:46:00,54.9,31.6,30.48,ESE,105,0.8,2.0,41,0.00,NA,NA,0.00,WeatherLink_script,2013-04-21 19:46:00,
2013-04-21 15:51:00,55.0,32.9,30.47,SE,130,2.4,4.0,43,0.00,NA,NA,0.00,WeatherLink_script,2013-04-21 19:51:00,
2013-04-21 15:56:00,55.0,31.1,30.48,SE,133,1.3,3.0,40,0.00,NA,NA,0.00,WeatherLink_script,2013-04-21 19:56:00,
2013-04-21 16:01:00,55.0,31.1,30.47,East,92,0.3,1.0,40,0.00,NA,NA,0.00,WeatherLink_script,2013-04-21 20:01:00,
2013-04-21 16:06:00,54.9,31.6,30.47,East,81,3.0,5.0,41,0.00,NA,NA,0.00,WeatherLink_script,2013-04-21 20:06:00,
2013-04-21 16:11:00,54.6,30.8,30.47,East,101,3.4,5.0,40,0.00,NA,NA,0.00,WeatherLink_script,2013-04-21 20:11:00,
2013-04-21 16:16:00,54.2,31.6,30.47,ESE,104,3.6,5.0,42,0.00,NA,NA,0.00,WeatherLink_script,2013-04-21 20:16:00,
2013-04-21 16:21:00,54.2,31.6,30.47,South,190,2.0,3.0,42,0.00,NA,NA,0.00,WeatherLink_script,2013-04-21 20:21:00,
2013-04-21 16:26:00,54.5,31.9,30.47,ESE,114,1.4,4.0,42,0.00,NA,NA,0.00,WeatherLink_script,2013-04-21 20:26:00,
2013-04-21 16:31:00,54.7,31.5,30.47,East,96,3.1,4.0,41,0.00,NA,NA,0.00,WeatherLink_script,2013-04-21 20:31:00,
2013-04-21 16:36:00,54.6,31.4,30.47,East,90,3.5,5.0,41,0.00,NA,NA,0.00,WeatherLink_script,2013-04-21 20:36:00,
2013-04-21 16:41:00,54.4,31.2,30.47,SE,145,1.5,4.0,41,0.00,NA,NA,0.00,WeatherLink_script,2013-04-21 20:41:00,
2013-04-21 16:46:00,54.5,33.6,30.47,SE,140,3.1,5.0,45,0.00,NA,NA,0.00,WeatherLink_script,2013-04-21 20:46:00,
2013-04-21 16:51:00,54.6,30.8,30.47,SSE,148,2.0,4.0,40,0.00,NA,NA,0.00,WeatherLink_script,2013-04-21 20:51:00,
2013-04-21 16:56:00,54.6,32.5,30.47,ENE,59,2.6,5.0,43,0.00,NA,NA,0.00,WeatherLink_script,2013-04-21 20:56:00,
2013-04-21 17:01:00,54.6,32.5,30.46,NNE,33,1.3,3.0,43,0.00,NA,NA,0.00,WeatherLink_script,2013-04-21 21:01:00,
2013-04-21 17:06:00,54.7,31.5,30.47,ESE,104,2.6,5.0,41,0.00,NA,NA,0.00,WeatherLink_script,2013-04-21 21:06:00,
2013-04-21 17:11:00,54.9,31.6,30.47,NE,34,2.3,3.0,41,0.00,NA,NA,0.00,WeatherLink_script,2013-04-21 21:11:00,
2013-04-21 17:16:00,54.7,30.2,30.46,NE,55,2.4,4.0,39,0.00,NA,NA,0.00,WeatherLink_script,2013-04-21 21:16:00,
2013-04-21 17:21:00,54.4,31.2,30.46,NE,55,1.4,3.0,41,0.00,NA,NA,0.00,WeatherLink_script,2013-04-21 21:21:00,
2013-04-21 17:26:00,54.2,31.0,30.46,NE,40,1.5,2.0,41,0.00,NA,NA,0.00,WeatherLink_script,2013-04-21 21:26:00,
2013-04-21 17:31:00,54.0,31.4,30.46,NE,40,0.5,2.0,42,0.00,NA,NA,0.00,WeatherLink_script,2013-04-21 21:31:00,
2013-04-21 17:36:00,54.0,32.0,30.46,ESE,104,2.5,5.0,43,0.00,NA,NA,0.00,WeatherLink_script,2013-04-21 21:36:00,
2013-04-21 17:41:00,53.9,31.3,30.47,NE,48,2.8,7.0,42,0.00,NA,NA,0.00,WeatherLink_script,2013-04-21 21:41:00,
2013-04-21 17:46:00,53.4,30.9,30.47,NE,43,2.4,4.0,42,0.00,NA,NA,0.00,WeatherLink_script,2013-04-21 21:46:00,
2013-04-21 17:51:00,53.3,32.5,30.47,NE,46,1.1,2.0,45,0.00,NA,NA,0.00,WeatherLink_script,2013-04-21 21:51:00,
2013-04-21 17:56:00,53.1,31.8,30.46,NE,46,0.6,2.0,44,0.00,NA,NA,0.00,WeatherLink_script,2013-04-21 21:56:00,
2013-04-21 18:01:00,52.7,30.8,30.47,NE,47,2.1,4.0,43,0.00,NA,NA,0.00,WeatherLink_script,2013-04-21 22:01:00,
2013-04-21 18:06:00,52.6,30.7,30.47,NE,36,2.1,4.0,43,0.00,NA,NA,0.00,WeatherLink_script,2013-04-21 22:06:00,
2013-04-21 18:11:00,52.3,31.6,30.47,NE,35,0.9,3.0,45,0.00,NA,NA,0.00,WeatherLink_script,2013-04-21 22:11:00,
2013-04-21 18:16:00,52.1,31.4,30.47,NNE,17,2.4,6.0,45,0.00,NA,NA,0.00,WeatherLink_script,2013-04-21 22:16:00,
2013-04-21 18:21:00,51.8,30.6,30.47,NE,39,3.6,5.0,44,0.00,NA,NA,0.00,WeatherLink_script,2013-04-21 22:21:00,
2013-04-21 18:26:00,51.5,30.3,30.47,North,358,2.1,3.0,44,0.00,NA,NA,0.00,WeatherLink_script,2013-04-21 22:26:00,
2013-04-21 18:31:00,51.2,30.6,30.47,NW,324,0.7,2.0,45,0.00,NA,NA,0.00,WeatherLink_script,2013-04-21 22:31:00,
2013-04-21 18:36:00,51.1,30.5,30.47,ENE,72,1.8,3.0,45,0.00,NA,NA,0.00,WeatherLink_script,2013-04-21 22:36:00,
2013-04-21 18:41:00,50.8,30.3,30.47,NE,47,2.1,3.0,45,0.00,NA,NA,0.00,WeatherLink_script,2013-04-21 22:41:00,
2013-04-21 18:46:00,50.6,30.6,30.47,NNE,31,1.4,3.0,46,0.00,NA,NA,0.00,WeatherLink_script,2013-04-21 22:46:00,
2013-04-21 18:51:00,50.5,30.0,30.47,ENE,72,1.5,3.0,45,0.00,NA,NA,0.00,WeatherLink_script,2013-04-21 22:51:00,
2013-04-21 18:56:00,50.5,30.5,30.47,East,79,1.5,3.0,46,0.00,NA,NA,0.00,WeatherLink_script,2013-04-21 22:56:00,
2013-04-21 19:01:00,50.2,30.3,30.48,ENE,76,3.8,5.0,46,0.00,NA,NA,0.00,WeatherLink_script,2013-04-21 23:01:00,
2013-04-21 19:06:00,50.1,30.1,30.47,East,99,2.9,5.0,46,0.00,NA,NA,0.00,WeatherLink_script,2013-04-21 23:06:00,
2013-04-21 19:11:00,49.9,30.5,30.47,East,97,2.4,6.0,47,0.00,NA,NA,0.00,WeatherLink_script,2013-04-21 23:11:00,
2013-04-21 19:16:00,49.8,30.4,30.47,East,97,2.9,5.0,47,0.00,NA,NA,0.00,WeatherLink_script,2013-04-21 23:16:00,
2013-04-21 19:21:00,49.6,29.7,30.47,NE,34,1.5,3.0,46,0.00,NA,NA,0.00,WeatherLink_script,2013-04-21 23:21:00,
2013-04-21 19:26:00,49.3,29.9,30.47,NE,50,2.6,5.0,47,0.00,NA,NA,0.00,WeatherLink_script,2013-04-21 23:26:00,
2013-04-21 19:31:00,49.2,29.8,30.47,NE,38,3.8,6.0,47,0.00,NA,NA,0.00,WeatherLink_script,2013-04-21 23:31:00,
2013-04-21 19:36:00,49.0,30.7,30.47,ENE,66,2.8,5.0,49,0.00,NA,NA,0.00,WeatherLink_script,2013-04-21 23:36:00,
2013-04-21 19:41:00,48.9,30.1,30.47,NE,44,1.6,4.0,48,0.00,NA,NA,0.00,WeatherLink_script,2013-04-21 23:41:00,
2013-04-21 19:46:00,48.7,29.9,30.48,NE,35,5.6,8.0,48,0.00,NA,NA,0.00,WeatherLink_script,2013-04-21 23:46:00,
2013-04-21 19:51:00,48.4,29.7,30.47,NE,40,2.1,3.0,48,0.00,NA,NA,0.00,WeatherLink_script,2013-04-21 23:51:00,
2013-04-21 19:56:00,48.3,29.5,30.48,ENE,72,2.6,5.0,48,0.00,NA,NA,0.00,WeatherLink_script,2013-04-21 23:56:00,
2013-04-21 20:01:00,48.0,29.3,30.48,NE,39,2.0,3.0,48,0.00,NA,NA,0.00,WeatherLink_script,2013-04-22 00:01:00,
2013-04-21 20:06:00,47.8,29.6,30.48,North,0,2.5,4.0,49,0.00,NA,NA,0.00,WeatherLink_script,2013-04-22 00:06:00,
2013-04-21 20:11:00,47.5,29.3,30.48,NE,34,2.3,3.0,49,0.00,NA,NA,0.00,WeatherLink_script,2013-04-22 00:11:00,
2013-04-21 20:16:00,47.4,29.2,30.48,NE,38,3.6,7.0,49,0.00,NA,NA,0.00,WeatherLink_script,2013-04-22 00:16:00,
2013-04-21 20:21:00,47.3,29.6,30.48,ENE,70,1.9,3.0,50,0.00,NA,NA,0.00,WeatherLink_script,2013-04-22 00:21:00,
2013-04-21 20:26:00,47.1,29.4,30.48,NNE,23,1.8,4.0,50,0.00,NA,NA,0.00,WeatherLink_script,2013-04-22 00:26:00,
2013-04-21 20:31:00,46.9,29.8,30.48,ENE,72,1.7,3.0,51,0.00,NA,NA,0.00,WeatherLink_script,2013-04-22 00:31:00,
2013-04-21 20:36:00,46.7,29.6,30.48,NE,44,0.6,2.0,51,0.00,NA,NA,0.00,WeatherLink_script,2013-04-22 00:36:00,
2013-04-21 20:41:00,46.6,29.5,30.48,NE,42,1.3,3.0,51,0.00,NA,NA,0.00,WeatherLink_script,2013-04-22 00:41:00,
2013-04-21 20:46:00,46.4,29.7,30.48,NE,48,2.1,3.0,52,0.00,NA,NA,0.00,WeatherLink_script,2013-04-22 00:46:00,
2013-04-21 20:51:00,46.3,29.2,30.48,NE,43,4.7,7.0,51,0.00,NA,NA,0.00,WeatherLink_script,2013-04-22 00:51:00,
2013-04-21 20:56:00,46.3,29.1,30.48,ENE,69,2.8,6.0,51,0.00,NA,NA,0.00,WeatherLink_script,2013-04-22 00:56:00,
2013-04-21 21:01:00,46.2,29.1,30.49,NNE,19,2.0,3.0,51,0.00,NA,NA,0.00,WeatherLink_script,2013-04-22 01:01:00,
2013-04-21 21:06:00,46.1,29.5,30.49,NE,48,2.7,4.0,52,0.00,NA,NA,0.00,WeatherLink_script,2013-04-22 01:06:00,
2013-04-21 21:11:00,46.0,29.3,30.50,ENE,60,2.7,4.0,52,0.00,NA,NA,0.00,WeatherLink_script,2013-04-22 01:11:00,
2013-04-21 21:16:00,45.9,29.8,30.50,NE,36,3.1,5.0,53,0.00,NA,NA,0.00,WeatherLink_script,2013-04-22 01:16:00,
2013-04-21 21:21:00,45.8,29.2,30.50,NE,56,1.4,3.0,52,0.00,NA,NA,0.00,WeatherLink_script,2013-04-22 01:21:00,
2013-04-21 21:26:00,45.7,29.1,30.50,ENE,58,1.1,2.0,52,0.00,NA,NA,0.00,WeatherLink_script,2013-04-22 01:26:00,
2013-04-21 21:31:00,45.5,28.9,30.50,NNE,19,1.8,3.0,52,0.00,NA,NA,0.00,WeatherLink_script,2013-04-22 01:31:00,
2013-04-21 21:36:00,45.4,28.8,30.50,NE,34,2.0,3.0,52,0.00,NA,NA,0.00,WeatherLink_script,2013-04-22 01:36:00,
2013-04-21 21:41:00,45.4,28.8,30.51,NNE,28,1.3,2.0,52,0.00,NA,NA,0.00,WeatherLink_script,2013-04-22 01:41:00,
2013-04-21 21:46:00,45.2,28.6,30.51,ENE,57,2.1,5.0,52,0.00,NA,NA,0.00,WeatherLink_script,2013-04-22 01:46:00,
2013-04-21 21:51:00,45.1,28.6,30.51,ENE,59,1.0,3.0,52,0.00,NA,NA,0.00,WeatherLink_script,2013-04-22 01:51:00,
2013-04-21 21:56:00,45.1,28.5,30.52,NE,45,4.4,6.0,52,0.00,NA,NA,0.00,WeatherLink_script,2013-04-22 01:56:00,
2013-04-21 22:01:00,45.0,28.5,30.51,NNE,31,1.6,3.0,52,0.00,NA,NA,0.00,WeatherLink_script,2013-04-22 02:01:00,
2013-04-21 22:06:00,44.9,27.9,30.51,NNE,24,2.5,5.0,51,0.00,NA,NA,0.00,WeatherLink_script,2013-04-22 02:06:00,
2013-04-21 22:11:00,44.9,27.9,30.52,ENE,59,1.8,4.0,51,0.00,NA,NA,0.00,WeatherLink_script,2013-04-22 02:11:00,
2013-04-21 22:16:00,44.7,28.2,30.52,NNE,17,0.6,2.0,52,0.00,NA,NA,0.00,WeatherLink_script,2013-04-22 02:16:00,
2013-04-21 22:21:00,44.6,28.1,30.52,NE,44,1.1,2.0,52,0.00,NA,NA,0.00,WeatherLink_script,2013-04-22 02:21:00,
2013-04-21 22:26:00,44.6,28.5,30.52,NE,46,2.4,4.0,53,0.00,NA,NA,0.00,WeatherLink_script,2013-04-22 02:26:00,
2013-04-21 22:31:00,44.5,28.0,30.52,ESE,119,2.2,4.0,52,0.00,NA,NA,0.00,WeatherLink_script,2013-04-22 02:31:00,
2013-04-21 22:36:00,44.3,28.3,30.53,ESE,105,2.1,5.0,53,0.00,NA,NA,0.00,WeatherLink_script,2013-04-22 02:36:00,
2013-04-21 22:41:00,44.2,28.6,30.53,NE,37,2.7,4.0,54,0.00,NA,NA,0.00,WeatherLink_script,2013-04-22 02:41:00,
2013-04-21 22:46:00,44.1,28.5,30.52,ESE,111,1.0,3.0,54,0.00,NA,NA,0.00,WeatherLink_script,2013-04-22 02:46:00,
2013-04-21 22:51:00,44.0,28.9,30.52,ESE,120,1.3,3.0,55,0.00,NA,NA,0.00,WeatherLink_script,2013-04-22 02:51:00,
2013-04-21 22:56:00,44.0,29.8,30.53,ESE,105,2.4,4.0,57,0.00,NA,NA,0.00,WeatherLink_script,2013-04-22 02:56:00,
2013-04-21 23:01:00,43.9,29.7,30.52,East,97,1.4,3.0,57,0.00,NA,NA,0.00,WeatherLink_script,2013-04-22 03:01:00,
2013-04-21 23:06:00,43.7,29.9,30.52,NNE,33,0.6,2.0,58,0.00,NA,NA,0.00,WeatherLink_script,2013-04-22 03:06:00,
2013-04-21 23:11:00,43.6,30.2,30.52,ESE,120,1.2,2.0,59,0.00,NA,NA,0.00,WeatherLink_script,2013-04-22 03:11:00,
2013-04-21 23:16:00,43.6,29.8,30.52,ENE,58,0.2,1.0,58,0.00,NA,NA,0.00,WeatherLink_script,2013-04-22 03:16:00,
2013-04-21 23:21:00,43.3,29.5,30.53,ENE,57,1.3,3.0,58,0.00,NA,NA,0.00,WeatherLink_script,2013-04-22 03:21:00,
2013-04-21 23:26:00,43.1,29.8,30.53,ESE,111,3.4,5.0,59,0.00,NA,NA,0.00,WeatherLink_script,2013-04-22 03:26:00,
2013-04-21 23:31:00,43.1,29.8,30.52,East,88,1.1,2.0,59,0.00,NA,NA,0.00,WeatherLink_script,2013-04-22 03:31:00,
2013-04-21 23:36:00,42.9,29.6,30.52,ENE,66,0.4,2.0,59,0.00,NA,NA,0.00,WeatherLink_script,2013-04-22 03:36:00,
2013-04-21 23:41:00,42.7,29.4,30.53,ENE,58,0.5,2.0,59,0.00,NA,NA,0.00,WeatherLink_script,2013-04-22 03:41:00,
2013-04-21 23:46:00,42.6,29.3,30.53,ENE,66,0.2,1.0,59,0.00,NA,NA,0.00,WeatherLink_script,2013-04-22 03:46:00,
2013-04-21 23:51:00,42.4,29.1,30.52,ENE,66,0.3,1.0,59,0.00,NA,NA,0.00,WeatherLink_script,2013-04-22 03:51:00,
2013-04-21 23:56:00,42.2,29.3,30.53,NE,55,0.0,0.0,60,0.00,NA,NA,0.00,WeatherLink_script,2013-04-22 03:56:00,